Time;durP1;ratioP1;P1;durP2;ratioP2;P2;SDS_P1;SDS_P2;PMS_P1;PMS_P2;Temp;Humidity;BMP_temperature;BMP_pressure;BME280_temperature;BME280_humidity;BME280_pressure;Samples;Min_cycle;Max_cycle;Signal;HPM_P1;HPM_P2
2023/04/30 00:02:11;;;;;;;6.90;6.22;;;12.10;62.00;;;;;;5039110;28;20050;-51
2023/04/30 00:04:38;;;;;;;8.13;6.45;;;12.10;62.10;;;;;;5041518;28;20037;-49
2023/04/30 00:07:05;;;;;;;7.05;6.32;;;12.00;62.10;;;;;;5041800;28;20052;-47
2023/04/30 00:09:31;;;;;;;9.00;6.32;;;12.00;62.20;;;;;;5038408;28;20041;-52
2023/04/30 00:11:58;;;;;;;8.45;6.88;;;12.00;62.30;;;;;;5038023;28;20501;-49
2023/04/30 00:14:24;;;;;;;6.78;6.18;;;12.00;62.30;;;;;;5038634;28;20055;-47
2023/04/30 00:16:54;;;;;;;7.78;6.43;;;11.90;62.10;;;;;;5038978;28;20043;-47
2023/04/30 00:19:21;;;;;;;9.00;6.75;;;11.90;62.10;;;;;;5040218;28;20543;-48
2023/04/30 00:21:47;;;;;;;8.27;7.28;;;11.70;62.10;;;;;;5044299;28;20424;-49
2023/04/30 00:24:14;;;;;;;7.80;6.63;;;11.90;62.50;;;;;;5037804;28;20038;-48
2023/04/30 00:26:42;;;;;;;7.38;6.15;;;11.80;62.60;;;;;;5040999;28;20048;-50
2023/04/30 00:29:09;;;;;;;7.35;6.40;;;11.80;62.70;;;;;;5041095;28;20516;-48
2023/04/30 00:31:36;;;;;;;6.78;6.13;;;11.80;62.60;;;;;;5041620;28;20068;-48
2023/04/30 00:34:04;;;;;;;8.82;6.65;;;11.80;62.70;;;;;;5039367;28;20048;-49
2023/04/30 00:36:33;;;;;;;9.85;6.93;;;11.70;62.60;;;;;;5033291;28;20100;-48
2023/04/30 00:38:59;;;;;;;7.80;6.40;;;11.70;62.50;;;;;;5043338;28;20057;-50
2023/04/30 00:41:27;;;;;;;7.53;6.68;;;11.70;62.60;;;;;;5035849;28;20037;-49
2023/04/30 00:43:54;;;;;;;9.73;6.93;;;11.70;62.60;;;;;;5040871;28;20037;-49
2023/04/30 00:46:20;;;;;;;6.82;5.93;;;11.60;62.40;;;;;;5033915;28;20115;-50
2023/04/30 00:48:50;;;;;;;7.43;6.13;;;11.60;62.40;;;;;;5041984;28;20682;-50
2023/04/30 00:51:17;;;;;;;8.75;6.22;;;11.60;62.40;;;;;;5038919;28;20059;-50
2023/04/30 00:53:43;;;;;;;7.07;5.80;;;11.50;62.30;;;;;;5047027;28;20565;-48
2023/04/30 00:56:16;;;;;;;7.70;6.60;;;11.50;62.20;;;;;;5041656;28;20049;-49
2023/04/30 00:58:48;;;;;;;7.97;6.63;;;11.40;62.20;;;;;;5041142;28;20099;-50
2023/04/30 01:01:16;;;;;;;8.75;7.07;;;11.40;62.20;;;;;;5033477;28;20405;-51
2023/04/30 01:03:43;;;;;;;8.27;7.43;;;11.40;62.20;;;;;;5047382;28;20041;-52
2023/04/30 01:06:10;;;;;;;7.03;6.32;;;11.30;62.20;;;;;;5039261;28;20063;-51
2023/04/30 01:08:37;;;;;;;7.32;6.28;;;11.30;62.30;;;;;;5045653;28;20120;-49
2023/04/30 01:11:21;;;;;;;9.02;7.57;;;11.20;62.20;;;;;;5030618;28;20048;-47
2023/04/30 01:13:57;;;;;;;7.85;6.97;;;11.20;62.40;;;;;;5037655;28;20045;-49
2023/04/30 01:16:29;;;;;;;8.38;6.90;;;11.10;62.50;;;;;;5037403;28;20157;-50
2023/04/30 01:19:07;;;;;;;10.35;7.68;;;11.10;62.50;;;;;;5043753;28;20051;-49
2023/04/30 01:21:40;;;;;;;9.18;7.22;;;11.10;62.70;;;;;;5036650;28;20469;-49
2023/04/30 01:24:12;;;;;;;7.40;6.43;;;11.10;62.50;;;;;;5051132;28;20052;-46
2023/04/30 01:27:06;;;;;;;7.88;7.07;;;11.00;62.30;;;;;;5042149;28;20111;-48
2023/04/30 01:29:35;;;;;;;7.28;6.25;;;11.00;62.40;;;;;;5042056;28;20033;-51
2023/04/30 01:32:02;;;;;;;8.05;6.75;;;10.90;62.30;;;;;;5039655;28;20056;-50
2023/04/30 01:34:29;;;;;;;7.15;6.47;;;10.90;62.30;;;;;;5039389;28;20045;-47
2023/04/30 01:37:19;;;;;;;7.82;6.90;;;10.90;62.30;;;;;;5041877;28;20478;-49
2023/04/30 01:40:02;;;;;;;7.35;6.35;;;10.90;62.50;;;;;;5037736;28;20120;-50
2023/04/30 01:43:06;;;;;;;7.05;6.35;;;10.80;62.30;;;;;;5060016;28;20127;-51
2023/04/30 01:45:36;;;;;;;9.80;6.65;;;10.80;62.40;;;;;;5028688;28;20045;-51
2023/04/30 01:48:24;;;;;;;7.82;7.03;;;10.70;62.20;;;;;;5048781;28;20108;-47
2023/04/30 01:51:08;;;;;;;7.57;6.80;;;10.70;62.30;;;;;;5046628;28;20037;-47
2023/04/30 01:53:41;;;;;;;9.18;7.43;;;10.60;62.40;;;;;;5049610;28;20037;-48
2023/04/30 01:56:31;;;;;;;8.60;7.30;;;10.60;62.40;;;;;;5033903;28;20588;-52
2023/04/30 01:58:59;;;;;;;7.50;6.68;;;10.60;62.60;;;;;;5052243;28;20465;-51
2023/04/30 02:01:32;;;;;;;9.93;7.22;;;10.50;62.30;;;;;;5049401;28;20041;-48
2023/04/30 02:03:59;;;;;;;8.40;7.47;;;10.50;62.40;;;;;;5032589;28;20382;-48
2023/04/30 02:06:30;;;;;;;8.52;7.13;;;10.40;62.40;;;;;;5040781;28;20041;-49
2023/04/30 02:09:01;;;;;;;8.52;7.35;;;10.40;62.40;;;;;;5043864;28;20137;-48
2023/04/30 02:11:29;;;;;;;10.32;7.28;;;10.40;62.30;;;;;;5043352;28;20041;-50
2023/04/30 02:13:56;;;;;;;9.52;7.55;;;10.40;62.30;;;;;;5031723;28;20041;-49
2023/04/30 02:16:28;;;;;;;;;;;10.30;62.40;;;;;;5047067;28;20139;-46
2023/04/30 02:18:55;;;;;;;8.50;7.03;;;10.40;62.60;;;;;;5045435;28;19921;-50
2023/04/30 02:21:21;;;;;;;8.27;7.50;;;10.30;62.20;;;;;;5030612;28;20136;-48
2023/04/30 02:23:48;;;;;;;9.00;7.43;;;10.30;62.40;;;;;;5040164;28;20037;-51
2023/04/30 02:26:16;;;;;;;10.32;7.95;;;10.30;62.40;;;;;;5034618;28;20556;-47
2023/04/30 02:28:43;;;;;;;7.68;6.85;;;10.20;62.40;;;;;;5051473;28;20298;-50
2023/04/30 02:31:11;;;;;;;9.38;7.68;;;10.10;62.40;;;;;;5051836;28;20100;-49
2023/04/30 02:33:38;;;;;;;8.65;6.85;;;10.10;62.40;;;;;;5047212;28;20132;-48
2023/04/30 02:36:05;;;;;;;8.52;7.28;;;10.10;63.00;;;;;;5040007;28;20628;-52
2023/04/30 02:38:34;;;;;;;9.75;8.48;;;10.00;62.40;;;;;;5040311;28;20548;-48
2023/04/30 02:41:02;;;;;;;10.27;8.05;;;10.00;62.50;;;;;;5039456;28;20091;-51
2023/04/30 02:43:31;;;;;;;9.18;7.68;;;10.00;62.70;;;;;;5037759;28;20065;-47
2023/04/30 02:45:59;;;;;;;9.85;7.88;;;9.90;62.70;;;;;;5040897;28;20041;-50
2023/04/30 02:48:27;;;;;;;9.13;8.00;;;9.90;62.60;;;;;;5041113;28;20528;-49
2023/04/30 02:50:54;;;;;;;9.38;8.00;;;9.90;62.60;;;;;;5038294;28;20052;-47
2023/04/30 02:53:21;;;;;;;9.35;8.35;;;9.90;62.70;;;;;;5039302;28;20077;-51
2023/04/30 02:55:47;;;;;;;11.30;8.57;;;9.90;62.80;;;;;;5060509;28;20417;-47
2023/04/30 02:58:16;;;;;;;11.75;7.88;;;9.90;62.80;;;;;;5042893;28;20111;-50
2023/04/30 03:00:42;;;;;;;9.32;8.05;;;9.80;62.70;;;;;;5031168;28;20619;-50
2023/04/30 03:03:11;;;;;;;9.27;8.25;;;9.80;62.70;;;;;;5048949;28;20041;-51
2023/04/30 03:05:38;;;;;;;10.55;8.40;;;9.80;62.70;;;;;;5038794;28;20390;-50
2023/04/30 03:08:04;;;;;;;9.15;8.15;;;9.70;62.60;;;;;;5039058;28;20056;-49
2023/04/30 03:10:37;;;;;;;8.20;7.22;;;9.70;62.60;;;;;;5042561;28;20045;-50
2023/04/30 03:13:05;;;;;;;8.00;7.20;;;9.70;62.70;;;;;;5040759;28;20037;-49
2023/04/30 03:15:33;;;;;;;9.57;7.88;;;9.70;62.60;;;;;;5038487;28;20521;-52
2023/04/30 03:17:59;;;;;;;9.35;7.63;;;9.60;62.50;;;;;;5033379;28;20042;-47
2023/04/30 03:20:26;;;;;;;8.40;7.45;;;9.70;62.60;;;;;;5063246;28;20061;-50
2023/04/30 03:22:59;;;;;;;8.52;7.40;;;9.60;62.60;;;;;;5048052;28;20059;-48
2023/04/30 03:25:25;;;;;;;9.75;8.00;;;9.60;62.50;;;;;;5043755;28;20112;-48
2023/04/30 03:27:52;;;;;;;9.80;7.88;;;9.50;62.50;;;;;;5040366;28;20068;-50
2023/04/30 03:30:19;;;;;;;10.77;8.40;;;9.50;62.50;;;;;;5038200;28;20053;-51
2023/04/30 03:32:48;;;;;;;10.05;8.27;;;9.50;62.60;;;;;;5046253;28;20405;-49
2023/04/30 03:35:15;;;;;;;11.65;8.77;;;9.50;62.70;;;;;;5037433;28;20033;-47
2023/04/30 03:37:41;;;;;;;9.32;8.38;;;9.40;62.70;;;;;;5041650;28;20119;-49
2023/04/30 03:40:10;;;;;;;8.68;7.40;;;9.40;62.70;;;;;;5047334;28;20071;-50
2023/04/30 03:42:37;;;;;;;10.35;7.85;;;9.40;62.70;;;;;;5035710;28;20041;-50
2023/04/30 03:45:03;;;;;;;9.13;8.13;;;9.40;62.80;;;;;;5059410;28;20044;-46
2023/04/30 03:47:30;;;;;;;11.65;9.60;;;9.30;62.60;;;;;;5034110;28;20613;-49
2023/04/30 03:50:00;;;;;;;11.88;8.88;;;9.30;62.80;;;;;;5037391;28;20037;-50
2023/04/30 03:52:26;;;;;;;11.23;9.25;;;9.30;62.80;;;;;;5049280;28;20052;-47
2023/04/30 03:54:53;;;;;;;11.45;8.60;;;9.30;62.90;;;;;;5044235;28;20523;-47
2023/04/30 03:57:20;;;;;;;9.05;8.15;;;9.30;62.90;;;;;;5030400;28;20120;-46
2023/04/30 03:59:49;;;;;;;10.55;8.15;;;9.20;62.80;;;;;;5048962;28;20144;-48
2023/04/30 04:02:16;;;;;;;10.35;7.63;;;9.20;62.80;;;;;;5040985;28;20159;-51
2023/04/30 04:04:46;;;;;;;8.68;7.68;;;9.20;62.90;;;;;;5035685;28;20037;-48
2023/04/30 04:07:13;;;;;;;8.98;7.30;;;9.20;62.80;;;;;;5040871;28;20120;-48
2023/04/30 04:09:40;;;;;;;9.45;8.43;;;9.10;62.80;;;;;;5039990;28;20038;-51
2023/04/30 04:12:07;;;;;;;9.75;8.55;;;9.10;62.80;;;;;;5045463;28;20048;-51
2023/04/30 04:14:35;;;;;;;11.70;8.55;;;9.10;62.80;;;;;;5038239;28;20045;-47
2023/04/30 04:17:04;;;;;;;8.02;7.07;;;9.10;62.90;;;;;;5037811;28;20080;-50
2023/04/30 04:19:31;;;;;;;10.90;8.10;;;9.10;62.90;;;;;;5037885;28;20140;-47
2023/04/30 04:22:01;;;;;;;11.35;7.95;;;9.10;62.90;;;;;;5042467;28;20059;-50
2023/04/30 04:24:28;;;;;;;8.30;7.40;;;9.00;63.00;;;;;;5044893;28;20240;-47
2023/04/30 04:26:55;;;;;;;8.88;8.02;;;9.10;63.00;;;;;;5039365;28;20033;-47
2023/04/30 04:29:22;;;;;;;9.35;8.20;;;9.00;63.00;;;;;;5048922;28;20044;-47
2023/04/30 04:31:49;;;;;;;10.43;8.10;;;9.00;63.20;;;;;;5040610;28;20131;-47
2023/04/30 04:34:18;;;;;;;9.10;7.90;;;9.00;63.20;;;;;;5042654;28;20045;-48
2023/04/30 04:36:47;;;;;;;9.35;8.15;;;9.00;63.20;;;;;;5037792;28;20048;-49
2023/04/30 04:39:14;;;;;;;9.82;8.32;;;9.00;63.30;;;;;;5039752;28;20044;-51
2023/04/30 04:41:43;;;;;;;11.00;8.57;;;9.00;63.30;;;;;;5037544;28;20426;-48
2023/04/30 04:44:09;;;;;;;9.32;7.90;;;9.00;63.50;;;;;;5036299;28;20048;-50
2023/04/30 04:46:43;;;;;;;9.40;8.40;;;9.00;63.50;;;;;;5057431;28;20506;-48
2023/04/30 04:49:09;;;;;;;8.95;7.88;;;9.00;63.70;;;;;;5036693;28;20408;-50
2023/04/30 04:51:38;;;;;;;10.65;8.40;;;9.00;63.60;;;;;;5045890;28;20523;-50
2023/04/30 04:54:06;;;;;;;10.18;8.80;;;9.00;63.80;;;;;;5036483;28;20049;-51
2023/04/30 04:56:33;;;;;;;9.82;8.82;;;9.00;64.20;;;;;;5038099;28;20739;-51
2023/04/30 04:59:00;;;;;;;11.07;9.32;;;9.10;64.60;;;;;;5037374;28;20049;-50
2023/04/30 05:01:26;;;;;;;12.52;10.07;;;9.10;64.90;;;;;;5036991;28;20493;-49
2023/04/30 05:03:53;;;;;;;10.73;9.07;;;9.10;65.00;;;;;;5042167;28;20045;-51
2023/04/30 05:06:20;;;;;;;10.70;9.35;;;9.20;65.10;;;;;;5032315;28;20064;-49
2023/04/30 05:08:47;;;;;;;10.45;9.27;;;9.20;65.10;;;;;;5040476;28;20436;-48
2023/04/30 05:11:14;;;;;;;11.20;8.85;;;9.20;65.10;;;;;;5043016;28;20060;-51
2023/04/30 05:13:44;;;;;;;12.50;10.00;;;9.30;65.20;;;;;;5036569;28;20041;-47
2023/04/30 05:16:10;;;;;;;10.90;9.45;;;9.30;65.10;;;;;;5040579;28;20072;-46
2023/04/30 05:18:37;;;;;;;12.93;10.05;;;9.40;65.30;;;;;;5039843;28;20405;-50
2023/04/30 05:21:04;;;;;;;14.43;10.15;;;9.40;65.30;;;;;;5048799;28;20068;-49
2023/04/30 05:23:35;;;;;;;11.88;10.50;;;9.40;65.40;;;;;;5045629;28;20521;-48
2023/04/30 05:26:02;;;;;;;11.70;9.45;;;9.50;65.50;;;;;;5041267;28;20051;-47
2023/04/30 05:28:29;;;;;;;10.55;9.27;;;9.50;65.60;;;;;;5040759;28;20045;-47
2023/04/30 05:30:56;;;;;;;13.80;11.27;;;9.50;65.70;;;;;;5042153;28;20513;-50
2023/04/30 05:33:22;;;;;;;13.02;11.32;;;9.60;65.90;;;;;;5040041;28;20036;-51
2023/04/30 05:35:50;;;;;;;12.77;10.35;;;9.60;66.00;;;;;;5037859;28;20041;-52
2023/04/30 05:38:17;;;;;;;13.43;10.60;;;9.70;66.20;;;;;;5042181;28;20128;-48
2023/04/30 05:40:45;;;;;;;15.95;9.85;;;9.70;66.40;;;;;;5038073;28;20048;-49
2023/04/30 05:43:11;;;;;;;14.30;11.52;;;9.80;66.50;;;;;;5033727;28;20120;-47
2023/04/30 05:45:40;;;;;;;17.23;12.85;;;9.90;66.70;;;;;;5036026;28;20045;-50
2023/04/30 05:48:07;;;;;;;19.98;14.27;;;9.90;67.00;;;;;;5033559;28;20100;-47
2023/04/30 05:50:33;;;;;;;19.20;14.73;;;10.00;67.40;;;;;;5037663;28;20071;-48
2023/04/30 05:53:02;;;;;;;18.92;15.05;;;10.00;67.80;;;;;;5040023;28;20044;-48
2023/04/30 05:55:29;;;;;;;17.80;14.13;;;10.10;68.10;;;;;;5037713;28;20513;-50
2023/04/30 05:57:56;;;;;;;20.20;14.90;;;10.10;68.20;;;;;;5033453;28;20045;-49
2023/04/30 06:00:23;;;;;;;17.25;15.32;;;10.30;68.50;;;;;;5040299;28;20056;-51
2023/04/30 06:02:49;;;;;;;18.05;14.65;;;10.30;68.60;;;;;;5038750;28;20045;-50
2023/04/30 06:05:16;;;;;;;16.92;14.23;;;10.40;68.70;;;;;;5034176;28;20822;-47
2023/04/30 06:07:43;;;;;;;17.27;13.85;;;10.50;68.90;;;;;;5037582;28;20421;-50
2023/04/30 06:10:10;;;;;;;17.52;14.02;;;10.50;68.80;;;;;;5042858;28;20041;-50
2023/04/30 06:12:38;;;;;;;21.77;14.82;;;10.60;68.90;;;;;;5041247;28;20523;-47
2023/04/30 06:15:06;;;;;;;16.95;13.93;;;10.70;69.20;;;;;;5037440;28;20041;-50
2023/04/30 06:17:32;;;;;;;17.98;13.80;;;10.70;69.20;;;;;;5037916;28;20060;-48
2023/04/30 06:20:01;;;;;;;16.02;13.73;;;10.80;69.10;;;;;;5033737;28;20059;-47
2023/04/30 06:22:29;;;;;;;17.95;15.32;;;10.90;69.10;;;;;;5036876;28;20673;-48
2023/04/30 06:24:56;;;;;;;17.92;13.80;;;11.00;69.20;;;;;;5038081;28;20044;-48
2023/04/30 06:27:26;;;;;;;18.88;14.77;;;11.00;69.10;;;;;;5035439;28;20048;-49
2023/04/30 06:29:53;;;;;;;22.77;15.70;;;11.10;69.20;;;;;;5040874;28;20417;-49
2023/04/30 06:32:23;;;;;;;16.83;14.20;;;11.10;69.10;;;;;;5040319;28;20053;-47
2023/04/30 06:34:50;;;;;;;15.93;13.90;;;11.20;69.20;;;;;;5041160;28;20041;-47
2023/04/30 06:37:17;;;;;;;16.15;13.18;;;11.20;69.10;;;;;;5039297;28;20112;-51
2023/04/30 06:39:44;;;;;;;17.98;14.63;;;11.30;69.20;;;;;;5046473;28;20401;-52
2023/04/30 06:42:10;;;;;;;19.98;14.73;;;11.30;69.20;;;;;;5043727;28;20083;-48
2023/04/30 06:44:39;;;;;;;17.08;14.30;;;11.40;69.20;;;;;;5043080;28;20449;-50
2023/04/30 06:47:06;;;;;;;15.15;13.20;;;11.50;69.20;;;;;;5047908;28;20037;-50
2023/04/30 06:49:35;;;;;;;17.38;13.18;;;11.50;69.10;;;;;;5038638;28;20044;-49
2023/04/30 06:52:02;;;;;;;16.60;13.45;;;11.60;69.30;;;;;;5039325;28;20033;-49
2023/04/30 06:54:31;;;;;;;17.25;13.70;;;11.60;69.10;;;;;;5042184;28;20064;-51
2023/04/30 06:57:00;;;;;;;17.00;13.75;;;11.70;69.10;;;;;;5037527;28;20052;-49
2023/04/30 06:59:27;;;;;;;17.75;13.55;;;11.70;68.90;;;;;;5041541;28;20036;-49
2023/04/30 07:01:54;;;;;;;17.02;13.30;;;11.80;69.00;;;;;;5036231;28;20125;-49
2023/04/30 07:04:26;;;;;;;20.88;14.15;;;11.90;69.00;;;;;;5042779;28;20099;-49
2023/04/30 07:06:53;;;;;;;15.32;12.25;;;11.90;69.00;;;;;;5039386;28;20052;-51
2023/04/30 07:09:19;;;;;;;16.55;12.75;;;12.00;68.60;;;;;;5028419;28;20054;-51
2023/04/30 07:11:46;;;;;;;16.95;13.20;;;12.00;68.50;;;;;;5043820;28;20127;-46
2023/04/30 07:14:13;;;;;;;14.43;12.82;;;12.10;68.50;;;;;;5042818;28;20505;-48
2023/04/30 07:16:39;;;;;;;16.98;12.25;;;12.10;68.40;;;;;;5040276;28;20041;-46
2023/04/30 07:19:06;;;;;;;14.02;12.57;;;12.20;68.30;;;;;;5044786;28;20098;-47
2023/04/30 07:21:32;;;;;;;16.23;13.00;;;12.20;68.30;;;;;;5048085;28;20712;-47
2023/04/30 07:23:59;;;;;;;18.05;12.60;;;12.30;68.20;;;;;;5046331;28;20040;-50
2023/04/30 07:26:25;;;;;;;14.15;11.60;;;12.40;68.40;;;;;;5043525;28;20037;-51
2023/04/30 07:28:52;;;;;;;16.70;13.50;;;12.40;68.10;;;;;;5049264;28;20053;-48
2023/04/30 07:31:19;;;;;;;14.02;12.40;;;12.50;67.90;;;;;;5045456;28;20048;-52
2023/04/30 07:33:46;;;;;;;14.95;12.27;;;12.50;67.90;;;;;;5046159;28;20065;-49
2023/04/30 07:36:12;;;;;;;16.92;13.45;;;12.60;67.80;;;;;;5046273;28;20699;-48
2023/04/30 07:38:39;;;;;;;14.85;12.00;;;12.60;67.50;;;;;;5045119;28;20428;-50
2023/04/30 07:41:07;;;;;;;15.70;13.07;;;12.70;67.40;;;;;;5050228;28;20547;-48
2023/04/30 07:43:33;;;;;;;14.82;11.80;;;12.80;67.40;;;;;;5045020;28;20107;-50
2023/04/30 07:46:01;;;;;;;15.30;12.38;;;12.80;67.50;;;;;;5046103;28;20554;-52
2023/04/30 07:48:27;;;;;;;14.80;12.77;;;12.90;67.50;;;;;;5045750;28;20523;-48
2023/04/30 07:50:55;;;;;;;14.93;12.13;;;13.00;67.50;;;;;;5049308;28;20052;-50
2023/04/30 07:53:23;;;;;;;15.73;12.13;;;13.00;67.50;;;;;;5042498;28;20049;-49
2023/04/30 07:55:51;;;;;;;13.60;12.05;;;13.10;67.80;;;;;;5039620;28;20060;-51
2023/04/30 07:58:18;;;;;;;15.75;12.02;;;13.20;67.00;;;;;;5043978;28;20041;-51
2023/04/30 08:00:45;;;;;;;13.52;10.65;;;13.20;66.80;;;;;;5043422;28;20044;-52
2023/04/30 08:03:11;;;;;;;12.57;10.75;;;13.30;66.70;;;;;;5045221;28;20091;-52
2023/04/30 08:05:39;;;;;;;15.88;12.35;;;13.30;66.80;;;;;;5049431;28;20397;-50
2023/04/30 08:08:06;;;;;;;14.43;11.93;;;13.40;66.80;;;;;;5046863;28;20044;-50
2023/04/30 08:10:33;;;;;;;14.88;12.05;;;13.50;66.70;;;;;;5045096;28;20037;-50
2023/04/30 08:13:04;;;;;;;12.25;10.27;;;13.50;66.70;;;;;;5041704;28;20052;-51
2023/04/30 08:15:33;;;;;;;14.35;11.50;;;13.60;66.50;;;;;;5046368;28;20069;-47
2023/04/30 08:17:59;;;;;;;12.57;10.73;;;13.70;66.40;;;;;;5045623;28;20452;-47
2023/04/30 08:20:26;;;;;;;13.68;11.02;;;13.70;66.10;;;;;;5049597;28;20056;-52
2023/04/30 08:22:53;;;;;;;11.98;10.52;;;13.80;66.00;;;;;;5049055;28;20635;-47
2023/04/30 08:25:19;;;;;;;14.48;10.40;;;13.90;65.70;;;;;;5042346;28;20468;-48
2023/04/30 08:27:46;;;;;;;12.23;9.32;;;14.00;65.40;;;;;;5048195;28;20056;-51
2023/04/30 08:30:13;;;;;;;12.68;10.55;;;14.00;65.20;;;;;;5049437;28;20451;-52
2023/04/30 08:32:40;;;;;;;11.98;10.38;;;14.10;65.20;;;;;;5044275;28;20049;-50
2023/04/30 08:35:07;;;;;;;11.82;9.60;;;14.20;64.90;;;;;;5045481;28;20052;-51
2023/04/30 08:37:36;;;;;;;12.05;10.13;;;14.30;64.80;;;;;;5040961;28;20453;-52
2023/04/30 08:40:03;;;;;;;13.48;9.93;;;14.30;64.60;;;;;;5041862;28;20045;-48
2023/04/30 08:42:36;;;;;;;13.13;8.38;;;14.40;64.60;;;;;;5050329;28;20041;-47
2023/04/30 08:45:03;;;;;;;;;;;14.40;63.60;;;;;;5046255;28;20049;-51
2023/04/30 08:47:30;;;;;;;9.82;7.85;;;14.50;64.00;;;;;;5034565;28;20592;-49
2023/04/30 08:49:57;;;;;;;9.70;8.70;;;14.60;63.80;;;;;;5048236;28;20505;-50
2023/04/30 08:52:25;;;;;;;8.95;8.05;;;14.70;63.50;;;;;;5045197;28;20041;-51
2023/04/30 08:54:53;;;;;;;9.20;6.93;;;14.70;63.30;;;;;;5048631;28;20086;-51
2023/04/30 08:57:20;;;;;;;8.05;6.40;;;14.70;63.00;;;;;;5042230;28;20040;-49
2023/04/30 08:59:47;;;;;;;9.30;6.88;;;14.80;62.60;;;;;;5047272;28;20044;-52
2023/04/30 09:02:13;;;;;;;6.93;6.05;;;14.80;62.70;;;;;;5046382;28;20119;-47
2023/04/30 09:04:40;;;;;;;6.78;5.40;;;14.90;62.50;;;;;;5048267;28;20120;-52
2023/04/30 09:07:08;;;;;;;5.55;4.25;;;15.00;62.20;;;;;;5040610;28;20041;-48
2023/04/30 09:09:38;;;;;;;5.18;4.18;;;15.00;61.40;;;;;;5040693;28;20038;-47
2023/04/30 09:12:12;;;;;;;4.07;3.67;;;15.10;60.70;;;;;;5040378;28;20075;-48
2023/04/30 09:15:00;;;;;;;4.93;4.38;;;15.10;60.70;;;;;;5041629;28;20037;-49
2023/04/30 09:17:31;;;;;;;7.10;5.82;;;15.20;60.40;;;;;;5043499;28;20041;-47
2023/04/30 09:20:09;;;;;;;5.75;5.10;;;15.30;60.80;;;;;;5043824;28;20037;-52
2023/04/30 09:22:39;;;;;;;4.85;4.22;;;15.30;60.50;;;;;;5047199;28;20048;-48
2023/04/30 09:25:07;;;;;;;6.55;4.13;;;15.40;60.50;;;;;;5048407;28;20037;-48
2023/04/30 09:27:34;;;;;;;4.40;3.83;;;15.50;60.70;;;;;;5043331;28;20033;-50
2023/04/30 09:30:04;;;;;;;5.00;3.85;;;15.50;60.40;;;;;;5042446;28;20033;-52
2023/04/30 09:32:36;;;;;;;4.72;3.92;;;15.60;60.20;;;;;;5042503;28;20045;-47
2023/04/30 09:35:05;;;;;;;4.45;4.05;;;15.70;59.60;;;;;;5047101;28;20061;-48
2023/04/30 09:37:39;;;;;;;3.63;3.22;;;15.80;59.60;;;;;;5045365;28;20044;-48
2023/04/30 09:40:07;;;;;;;4.55;2.47;;;15.80;59.10;;;;;;5053061;28;20051;-52
2023/04/30 09:42:34;;;;;;;2.08;1.83;;;15.90;58.80;;;;;;5052921;28;20381;-48
2023/04/30 09:45:04;;;;;;;4.40;3.38;;;16.00;58.00;;;;;;5052738;28;20488;-51
2023/04/30 09:47:32;;;;;;;3.97;3.42;;;16.00;58.10;;;;;;5050032;28;20041;-51
2023/04/30 09:49:59;;;;;;;3.95;2.45;;;16.10;58.50;;;;;;5052271;28;20037;-49
2023/04/30 09:52:27;;;;;;;2.00;1.80;;;16.20;58.10;;;;;;5052134;28;20120;-52
2023/04/30 09:54:53;;;;;;;4.35;3.58;;;16.20;57.10;;;;;;5063027;22;20127;-55
2023/04/30 09:57:22;;;;;;;3.78;3.40;;;16.30;57.60;;;;;;5053905;28;20045;-51
2023/04/30 09:59:51;;;;;;;3.63;3.13;;;16.40;57.00;;;;;;5069984;28;20044;-52
2023/04/30 10:02:21;;;;;;;4.43;2.97;;;16.50;56.90;;;;;;5073110;28;20072;-53
2023/04/30 10:04:56;;;;;;;5.45;3.30;;;16.50;57.20;;;;;;5064140;28;20049;-50
2023/04/30 10:07:35;;;;;;;4.18;3.20;;;16.50;56.60;;;;;;5066400;28;20033;-54
2023/04/30 10:10:12;;;;;;;3.47;2.95;;;16.60;56.60;;;;;;5064158;28;20045;-52
2023/04/30 10:12:47;;;;;;;3.90;2.95;;;16.70;56.50;;;;;;5072613;28;20049;-50
2023/04/30 10:15:21;;;;;;;4.15;2.60;;;16.80;56.60;;;;;;5066999;28;20466;-52
2023/04/30 10:17:59;;;;;;;;;;;16.80;56.80;;;;;;5057987;28;20049;-53
2023/04/30 10:20:30;;;;;;;;;;;16.90;58.10;;;;;;5066461;28;20434;-53
2023/04/30 10:22:57;;;;;;;;;;;17.00;57.50;;;;;;5071979;28;20269;-52
2023/04/30 10:25:25;;;;;;;;;;;17.10;57.60;;;;;;5070989;28;20346;-53
2023/04/30 10:27:53;;;;;;;;;;;17.20;57.60;;;;;;5062177;28;19959;-53
2023/04/30 10:30:21;;;;;;;;;;;17.30;57.70;;;;;;5073381;28;19920;-52
2023/04/30 10:32:51;;;;;;;;;;;17.40;57.60;;;;;;5054658;28;19928;-53
2023/04/30 10:35:31;;;;;;;;;;;17.40;57.30;;;;;;5069582;28;19982;-52
2023/04/30 10:38:16;;;;;;;;;;;17.50;57.70;;;;;;5057992;28;20540;-52
2023/04/30 10:40:46;;;;;;;;;;;17.60;57.70;;;;;;5073555;28;19924;-51
2023/04/30 10:43:26;;;;;;;;;;;17.60;57.70;;;;;;5064099;28;19943;-53
2023/04/30 10:45:52;;;;;;;;;;;17.70;57.60;;;;;;5064092;28;19931;-50
2023/04/30 10:48:25;;;;;;;;;;;17.80;57.60;;;;;;5062128;28;20285;-52
2023/04/30 10:50:57;;;;;;;;;;;17.80;57.60;;;;;;5073067;28;19935;-49
2023/04/30 10:53:29;;;;;;;;;;;17.90;57.40;;;;;;5072718;28;20334;-54
2023/04/30 10:56:05;;;;;;;;;;;17.90;57.40;;;;;;5065913;28;19924;-54
2023/04/30 10:58:42;;;;;;;;;;;18.00;57.40;;;;;;5071802;28;20027;-51
2023/04/30 11:01:16;;;;;;;;;;;18.00;58.30;;;;;;5073232;28;19920;-51
2023/04/30 11:04:04;;;;;;;;;;;18.10;57.70;;;;;;5062371;28;20308;-54
2023/04/30 11:06:55;;;;;;;;;;;18.20;57.90;;;;;;5068460;28;20396;-55
2023/04/30 11:09:41;;;;;;;;;;;18.30;58.00;;;;;;5065172;28;20330;-54
2023/04/30 11:12:11;;;;;;;;;;;18.40;58.00;;;;;;5064593;28;19929;-53
2023/04/30 11:14:42;;;;;;;;;;;18.60;58.10;;;;;;5066658;28;19927;-53
2023/04/30 11:17:10;;;;;;;;;;;18.80;58.10;;;;;;5058022;28;20662;-55
2023/04/30 11:19:44;;;;;;;;;;;19.00;58.20;;;;;;5064554;28;19952;-55
2023/04/30 11:22:15;;;;;;;;;;;19.10;56.80;;;;;;5072075;28;19921;-52
2023/04/30 11:24:59;;;;;;;;;;;19.20;57.00;;;;;;5069912;28;19921;-53
2023/04/30 11:27:27;;;;;;;;;;;19.20;56.80;;;;;;5067444;28;20024;-54
2023/04/30 11:29:56;;;;;;;;;;;19.30;57.00;;;;;;5072008;28;19943;-53
2023/04/30 11:32:30;;;;;;;;;;;19.40;57.20;;;;;;5071931;28;19947;-55
2023/04/30 11:34:58;;;;;;;;;;;19.50;57.40;;;;;;5062374;28;20400;-53
2023/04/30 11:37:32;;;;;;;;;;;19.60;57.20;;;;;;5066595;28;19921;-52
2023/04/30 11:40:00;;;;;;;;;;;19.70;56.80;;;;;;5071511;28;19932;-52
2023/04/30 11:42:35;;;;;;;;;;;19.80;56.80;;;;;;5071124;28;19932;-52
2023/04/30 11:45:07;;;;;;;;;;;19.80;56.80;;;;;;5066373;28;20014;-56
2023/04/30 11:47:40;;;;;;;;;;;20.00;56.70;;;;;;5065036;28;20421;-56
2023/04/30 11:50:11;;;;;;;;;;;20.10;56.70;;;;;;5070574;28;20338;-53
2023/04/30 11:52:39;;;;;;;;;;;20.10;56.70;;;;;;5071818;28;19924;-52
2023/04/30 11:55:07;;;;;;;;;;;20.20;56.40;;;;;;5060557;28;19927;-56
2023/04/30 11:57:44;;;;;;;;;;;20.30;56.20;;;;;;5065550;28;19928;-54
2023/04/30 12:00:15;;;;;;;;;;;20.40;55.90;;;;;;5071495;28;19921;-56
2023/04/30 12:02:44;;;;;;;;;;;20.40;55.50;;;;;;5071412;28;19920;-55
2023/04/30 12:05:26;;;;;;;;;;;20.40;55.40;;;;;;5056919;28;19929;-55
2023/04/30 12:08:03;;;;;;;;;;;20.50;56.00;;;;;;5066946;28;20418;-51
2023/04/30 12:10:32;;;;;;;;;;;20.60;55.80;;;;;;5069346;28;20015;-53
2023/04/30 12:13:00;;;;;;;;;;;20.60;55.70;;;;;;5055526;28;19948;-52
2023/04/30 12:15:29;;;;;;;;;;;20.70;55.60;;;;;;5060651;28;19936;-53
2023/04/30 12:18:15;;;;;;;;;;;20.80;55.50;;;;;;5062164;28;19921;-53
2023/04/30 12:20:43;;;;;;;;;;;20.80;55.40;;;;;;5071643;28;19920;-57
2023/04/30 12:23:11;;;;;;;;;;;21.00;55.80;;;;;;5070599;28;19920;-52
2023/04/30 12:25:42;;;;;;;;;;;21.00;55.40;;;;;;5063020;28;19920;-54
2023/04/30 12:28:11;;;;;;;;;;;21.20;54.90;;;;;;5050576;28;19924;-54
2023/04/30 12:30:41;;;;;;;;;;;21.20;55.20;;;;;;5071522;28;19966;-54
2023/04/30 12:33:09;;;;;;;;;;;21.30;54.90;;;;;;5070427;28;19927;-55
2023/04/30 12:35:41;;;;;;;;;;;21.40;55.10;;;;;;5067154;28;19921;-56
2023/04/30 12:38:08;;;;;;;;;;;21.40;54.80;;;;;;5053638;28;19932;-52
2023/04/30 12:40:35;;;;;;;;;;;21.50;54.70;;;;;;5063905;28;20363;-51
2023/04/30 12:43:03;;;;;;;;;;;21.60;54.70;;;;;;5065762;28;20499;-55
2023/04/30 12:45:50;;;;;;;;;;;21.60;54.30;;;;;;5059730;28;19936;-54
2023/04/30 12:48:21;;;;;;;;;;;21.60;53.80;;;;;;5061459;28;20380;-52
2023/04/30 12:51:08;;;;;;;;;;;21.60;54.00;;;;;;5062104;28;19931;-55
2023/04/30 12:53:44;;;;;;;;;;;21.70;53.70;;;;;;5060350;28;20460;-56
2023/04/30 12:56:15;;;;;;;;;;;21.80;54.00;;;;;;5062521;28;19927;-55
2023/04/30 12:58:48;;;;;;;;;;;21.90;53.90;;;;;;5061759;28;19970;-56
2023/04/30 13:01:19;;;;;;;;;;;22.00;54.00;;;;;;5070267;28;20326;-56
2023/04/30 13:03:46;;;;;;;;;;;22.10;53.30;;;;;;5060384;28;19924;-53
2023/04/30 13:06:13;;;;;;;;;;;22.20;53.50;;;;;;5064613;28;19935;-52
2023/04/30 13:08:39;;;;;;;;;;;22.30;52.70;;;;;;5062980;28;20301;-55
2023/04/30 13:11:24;;;;;;;;;;;22.30;52.90;;;;;;5068380;28;20020;-56
2023/04/30 13:13:53;;;;;;;;;;;22.40;53.80;;;;;;5059663;28;20015;-55
2023/04/30 13:16:20;;;;;;;;;;;22.60;53.30;;;;;;5059142;28;19927;-52